Time;durP1;ratioP1;P1;durP2;ratioP2;P2;SDS_P1;SDS_P2;PMS_P1;PMS_P2;Temp;Humidity;BMP_temperature;BMP_pressure;BME280_temperature;BME280_humidity;BME280_pressure;Samples;Min_cycle;Max_cycle;Signal;HPM_P1;HPM_P2
2024/04/01 00:01:54;;;;;;;0.70;0.20;;;;;;;;;;5051405;28;20029;-78
2024/04/01 00:04:21;;;;;;;1.65;0.68;;;;;;;;;;5044942;28;20022;-80
2024/04/01 00:06:47;;;;;;;0.25;0.20;;;;;;;;;;5050060;28;20021;-80
2024/04/01 00:09:13;;;;;;;4.78;0.30;;;;;;;;;;5049965;28;20013;-80
2024/04/01 00:11:39;;;;;;;1.20;0.30;;;;;;;;;;5035648;28;20022;-78
2024/04/01 00:14:05;;;;;;;0.30;0.30;;;;;;;;;;5057907;28;20021;-79
2024/04/01 00:16:31;;;;;;;0.60;0.30;;;;;;;;;;5041961;28;20029;-79
2024/04/01 00:18:57;;;;;;;0.57;0.17;;;;;;;;;;5056144;28;20017;-79
2024/04/01 00:21:23;;;;;;;1.88;0.43;;;;;;;;;;5055176;28;20049;-79
2024/04/01 00:23:53;;;;;;;1.83;0.40;;;;;;;;;;5030096;28;20032;-79
2024/04/01 00:26:19;;;;;;;0.52;0.40;;;;;;;;;;5031915;28;20032;-80
2024/04/01 00:28:45;;;;;;;0.40;0.40;;;;;;;;;;5050802;28;20130;-80
2024/04/01 00:31:11;;;;;;;0.20;0.20;;;;;;;;;;5046913;28;20028;-80
2024/04/01 00:33:37;;;;;;;0.57;0.40;;;;;;;;;;5050414;28;20049;-80
2024/04/01 00:36:03;;;;;;;0.80;0.40;;;;;;;;;;5049500;28;20129;-80
2024/04/01 00:38:29;;;;;;;0.30;0.20;;;;;;;;;;5039978;28;20396;-79
2024/04/01 00:40:55;;;;;;;0.98;0.20;;;;;;;;;;5039846;28;20025;-78
2024/04/01 00:43:22;;;;;;;1.90;0.20;;;;;;;;;;5030676;28;20029;-81
2024/04/01 00:45:49;;;;;;;0.47;0.20;;;;;;;;;;5022854;28;20022;-79
2024/04/01 00:48:15;;;;;;;0.20;0.20;;;;;;;;;;5025032;28;20025;-81
2024/04/01 00:50:43;;;;;;;1.25;0.20;;;;;;;;;;5034756;28;20022;-81
2024/04/01 00:53:11;;;;;;;0.28;0.22;;;;;;;;;;5022313;28;20029;-80
2024/04/01 00:55:39;;;;;;;0.82;0.50;;;;;;;;;;5017693;28;20052;-80
2024/04/01 00:58:05;;;;;;;0.03;0.03;;;;;;;;;;5042020;28;20037;-81
2024/04/01 01:00:32;;;;;;;0.20;0.10;;;;;;;;;;5038249;28;20100;-81
2024/04/01 01:02:58;;;;;;;0.65;0.30;;;;;;;;;;5034084;28;20073;-81
2024/04/01 01:05:25;;;;;;;1.45;0.30;;;;;;;;;;5024092;28;20026;-79
2024/04/01 01:07:51;;;;;;;2.95;0.45;;;;;;;;;;5033962;28;20022;-80
2024/04/01 01:10:17;;;;;;;1.17;0.30;;;;;;;;;;5039239;28;20392;-80
2024/04/01 01:12:43;;;;;;;0.65;0.25;;;;;;;;;;5023371;28;20114;-80
2024/04/01 01:15:10;;;;;;;0.10;0.10;;;;;;;;;;5045182;28;20045;-79
2024/04/01 01:17:36;;;;;;;1.13;0.25;;;;;;;;;;5047484;28;20111;-79
2024/04/01 01:20:03;;;;;;;0.75;0.20;;;;;;;;;;5018463;28;20062;-81
2024/04/01 01:22:35;;;;;;;0.73;0.20;;;;;;;;;;5040033;28;20480;-80
2024/04/01 01:25:01;;;;;;;0.20;0.20;;;;;;;;;;5040852;28;20033;-80
2024/04/01 01:27:28;;;;;;;0.13;0.10;;;;;;;;;;5033647;28;20049;-80
2024/04/01 01:29:54;;;;;;;0.22;0.20;;;;;;;;;;5023823;28;20040;-82
2024/04/01 01:32:20;;;;;;;0.38;0.28;;;;;;;;;;5022220;28;20029;-80
2024/04/01 01:34:47;;;;;;;0.47;0.20;;;;;;;;;;5041037;28;20080;-80
2024/04/01 01:37:13;;;;;;;1.27;0.30;;;;;;;;;;5040438;28;20034;-81
2024/04/01 01:39:39;;;;;;;0.47;0.10;;;;;;;;;;5040737;28;20029;-80
2024/04/01 01:42:05;;;;;;;1.33;0.32;;;;;;;;;;5041871;28;20026;-80
2024/04/01 01:44:31;;;;;;;0.47;0.20;;;;;;;;;;5041527;28;20491;-80
2024/04/01 01:46:57;;;;;;;1.02;0.30;;;;;;;;;;5032325;28;20026;-79
2024/04/01 01:49:24;;;;;;;1.90;0.30;;;;;;;;;;5019698;28;20028;-80
2024/04/01 01:51:51;;;;;;;3.40;0.25;;;;;;;;;;5035496;28;20025;-80
2024/04/01 01:54:17;;;;;;;0.82;0.17;;;;;;;;;;5032759;28;20032;-80
2024/04/01 01:56:43;;;;;;;1.27;0.22;;;;;;;;;;5022855;28;20050;-81
2024/04/01 01:59:09;;;;;;;0.32;0.20;;;;;;;;;;5033378;28;20082;-80
2024/04/01 02:01:35;;;;;;;0.93;0.55;;;;;;;;;;5033918;28;21989;-80
2024/04/01 02:04:01;;;;;;;1.20;0.10;;;;;;;;;;5043427;28;20025;-80
2024/04/01 02:06:27;;;;;;;1.08;0.28;;;;;;;;;;5025871;28;20021;-80
2024/04/01 02:08:54;;;;;;;0.25;0.20;;;;;;;;;;5041043;28;20093;-80
2024/04/01 02:11:20;;;;;;;0.77;0.30;;;;;;;;;;5039867;28;20045;-79
2024/04/01 02:13:46;;;;;;;0.60;0.20;;;;;;;;;;5021159;28;20048;-79
2024/04/01 02:16:12;;;;;;;1.65;0.20;;;;;;;;;;5043037;28;20006;-78
2024/04/01 02:18:38;;;;;;;0.40;0.17;;;;;;;;;;5048301;28;20041;-79
2024/04/01 02:21:04;;;;;;;0.93;0.22;;;;;;;;;;5030739;28;20026;-79
2024/04/01 02:23:33;;;;;;;0.20;0.20;;;;;;;;;;5045658;28;20123;-79
2024/04/01 02:26:03;;;;;;;1.95;0.60;;;;;;;;;;5043139;28;20136;-79
2024/04/01 02:28:32;;;;;;;1.90;0.40;;;;;;;;;;5011446;28;20107;-80
2024/04/01 02:30:59;;;;;;;2.47;0.38;;;;;;;;;;5014260;28;20026;-80
2024/04/01 02:33:25;;;;;;;2.63;0.43;;;;;;;;;;5028491;28;20025;-80
2024/04/01 02:35:51;;;;;;;1.70;0.30;;;;;;;;;;5032969;28;20079;-80
2024/04/01 02:38:18;;;;;;;2.83;0.60;;;;;;;;;;5012453;28;20455;-81
2024/04/01 02:40:44;;;;;;;1.35;0.20;;;;;;;;;;5030165;28;20040;-81
2024/04/01 02:43:10;;;;;;;1.10;0.25;;;;;;;;;;5031171;28;20461;-79
2024/04/01 02:45:37;;;;;;;1.85;0.38;;;;;;;;;;5031026;28;20117;-81
2024/04/01 02:48:03;;;;;;;1.23;0.50;;;;;;;;;;5042667;28;20037;-78
2024/04/01 02:50:29;;;;;;;0.80;0.20;;;;;;;;;;5029612;28;20021;-79
2024/04/01 02:52:55;;;;;;;0.60;0.25;;;;;;;;;;5025464;28;20030;-79
2024/04/01 02:55:21;;;;;;;0.85;0.40;;;;;;;;;;5045563;28;20030;-81
2024/04/01 02:57:47;;;;;;;1.42;0.30;;;;;;;;;;5043474;28;20032;-80
2024/04/01 03:00:16;;;;;;;0.75;0.30;;;;;;;;;;5042160;28;20037;-80
2024/04/01 03:02:44;;;;;;;0.60;0.30;;;;;;;;;;5043974;28;20029;-81
2024/04/01 03:05:11;;;;;;;0.43;0.30;;;;;;;;;;5012163;28;20022;-81
2024/04/01 03:07:37;;;;;;;0.13;0.10;;;;;;;;;;5025034;28;20033;-80
2024/04/01 03:10:04;;;;;;;0.77;0.43;;;;;;;;;;5026985;28;20053;-78
2024/04/01 03:12:30;;;;;;;1.13;0.20;;;;;;;;;;5034358;28;20021;-79
2024/04/01 03:14:56;;;;;;;0.65;0.30;;;;;;;;;;5017710;28;20108;-80
2024/04/01 03:17:23;;;;;;;0.68;0.22;;;;;;;;;;5034009;28;20503;-78
2024/04/01 03:19:49;;;;;;;0.43;0.30;;;;;;;;;;5026308;28;20100;-78
2024/04/01 03:22:15;;;;;;;1.52;1.05;;;;;;;;;;5026242;28;20399;-77
2024/04/01 03:24:41;;;;;;;0.68;0.30;;;;;;;;;;5034836;28;20033;-78
2024/04/01 03:27:07;;;;;;;1.90;0.13;;;;;;;;;;5018019;28;20037;-78
2024/04/01 03:29:33;;;;;;;1.13;0.10;;;;;;;;;;5030307;28;20025;-79
2024/04/01 03:31:59;;;;;;;0.20;0.17;;;;;;;;;;5037173;28;20092;-79
2024/04/01 03:34:26;;;;;;;0.20;0.20;;;;;;;;;;5046535;28;20010;-78
2024/04/01 03:36:57;;;;;;;0.40;0.40;;;;;;;;;;5053649;28;20016;-79
2024/04/01 03:39:23;;;;;;;0.17;0.10;;;;;;;;;;5014873;28;20100;-78
2024/04/01 03:41:49;;;;;;;1.30;0.10;;;;;;;;;;5048089;28;20136;-78
2024/04/01 03:44:15;;;;;;;2.25;0.38;;;;;;;;;;5029587;28;20022;-77
2024/04/01 03:46:41;;;;;;;0.65;0.22;;;;;;;;;;5058751;28;20061;-77
2024/04/01 03:49:08;;;;;;;1.55;0.30;;;;;;;;;;5056525;28;20025;-78
2024/04/01 03:51:34;;;;;;;1.52;0.70;;;;;;;;;;5041133;28;20028;-78
2024/04/01 03:54:00;;;;;;;1.45;0.30;;;;;;;;;;5050314;28;20018;-80
2024/04/01 03:56:27;;;;;;;1.05;0.20;;;;;;;;;;5025297;28;20021;-80
2024/04/01 03:58:53;;;;;;;3.38;0.20;;;;;;;;;;5051419;28;20034;-83
2024/04/01 04:01:19;;;;;;;0.47;0.17;;;;;;;;;;5029642;28;20408;-80
2024/04/01 04:03:45;;;;;;;1.85;0.22;;;;;;;;;;5047992;28;20060;-80
2024/04/01 04:06:11;;;;;;;1.35;0.40;;;;;;;;;;5042065;28;20032;-81
2024/04/01 04:08:38;;;;;;;1.58;0.30;;;;;;;;;;5025833;28;20022;-78
2024/04/01 04:11:07;;;;;;;2.20;0.25;;;;;;;;;;5036864;28;20550;-80
2024/04/01 04:13:36;;;;;;;2.15;0.50;;;;;;;;;;5010210;28;20069;-79
2024/04/01 04:16:03;;;;;;;1.23;0.40;;;;;;;;;;5017799;28;20044;-79
2024/04/01 04:18:29;;;;;;;1.60;0.38;;;;;;;;;;5011844;28;20022;-80
2024/04/01 04:20:55;;;;;;;2.10;0.47;;;;;;;;;;5029077;28;20028;-79
2024/04/01 04:23:25;;;;;;;0.77;0.45;;;;;;;;;;5019102;28;20459;-78
2024/04/01 04:25:51;;;;;;;2.67;0.45;;;;;;;;;;5036585;28;20026;-80
2024/04/01 04:28:18;;;;;;;0.52;0.25;;;;;;;;;;5012079;28;20167;-79
2024/04/01 04:30:44;;;;;;;0.50;0.30;;;;;;;;;;5036809;28;20022;-80
2024/04/01 04:33:10;;;;;;;0.38;0.20;;;;;;;;;;5038265;28;20026;-80
2024/04/01 04:35:36;;;;;;;1.42;0.40;;;;;;;;;;5034863;28;20337;-79
2024/04/01 04:38:02;;;;;;;0.30;0.30;;;;;;;;;;5036751;28;20417;-79
2024/04/01 04:40:29;;;;;;;0.22;0.13;;;;;;;;;;5012814;28;20049;-81
2024/04/01 04:42:55;;;;;;;1.02;0.10;;;;;;;;;;5033422;28;20025;-80
2024/04/01 04:45:22;;;;;;;0.55;0.20;;;;;;;;;;5022322;28;20492;-79
2024/04/01 04:47:49;;;;;;;0.43;0.20;;;;;;;;;;5024035;28;20026;-80
2024/04/01 04:50:15;;;;;;;0.28;0.20;;;;;;;;;;5035404;28;20022;-80
2024/04/01 04:52:41;;;;;;;0.40;0.30;;;;;;;;;;5030778;28;20093;-81
2024/04/01 04:55:07;;;;;;;0.28;0.20;;;;;;;;;;5047129;28;20024;-82
2024/04/01 04:57:33;;;;;;;0.22;0.15;;;;;;;;;;5047468;28;20026;-81
2024/04/01 04:59:59;;;;;;;0.98;0.20;;;;;;;;;;5054051;28;20032;-82
2024/04/01 05:02:26;;;;;;;1.02;0.38;;;;;;;;;;5038235;28;20424;-80
2024/04/01 05:04:52;;;;;;;1.13;0.35;;;;;;;;;;5020343;28;20025;-79
2024/04/01 05:07:18;;;;;;;0.03;0.03;;;;;;;;;;5035674;28;20060;-80
2024/04/01 05:09:44;;;;;;;0.10;0.10;;;;;;;;;;5027075;28;20022;-80
2024/04/01 05:12:11;;;;;;;0.30;0.20;;;;;;;;;;5020161;28;20018;-80
2024/04/01 05:14:37;;;;;;;0.17;0.10;;;;;;;;;;5035233;28;20033;-80
2024/04/01 05:17:04;;;;;;;0.30;0.10;;;;;;;;;;5037576;28;20025;-81
2024/04/01 05:19:30;;;;;;;0.25;0.10;;;;;;;;;;5038573;28;20028;-80
2024/04/01 05:21:57;;;;;;;0.40;0.25;;;;;;;;;;5032145;28;20034;-81
2024/04/01 05:24:23;;;;;;;0.28;0.15;;;;;;;;;;5031350;28;20025;-81
2024/04/01 05:26:49;;;;;;;0.20;0.20;;;;;;;;;;5016554;28;20052;-81
2024/04/01 05:29:15;;;;;;;0.38;0.22;;;;;;;;;;5024467;28;20039;-79
2024/04/01 05:31:41;;;;;;;0.80;0.43;;;;;;;;;;5016123;28;20133;-79
2024/04/01 05:34:08;;;;;;;1.17;0.30;;;;;;;;;;5032160;28;20248;-79
2024/04/01 05:36:35;;;;;;;1.23;0.40;;;;;;;;;;5032560;28;20087;-80
2024/04/01 05:39:01;;;;;;;0.20;0.13;;;;;;;;;;5013888;28;20033;-79
2024/04/01 05:41:27;;;;;;;1.83;0.20;;;;;;;;;;5019130;28;20473;-79
2024/04/01 05:43:54;;;;;;;0.55;0.20;;;;;;;;;;5028957;28;20112;-80
2024/04/01 05:46:20;;;;;;;0.75;0.22;;;;;;;;;;5034961;28;20036;-80
2024/04/01 05:48:46;;;;;;;0.35;0.20;;;;;;;;;;5035758;28;20026;-81
2024/04/01 05:51:13;;;;;;;0.10;0.10;;;;;;;;;;5031157;28;20013;-83
2024/04/01 05:53:39;;;;;;;0.22;0.17;;;;;;;;;;5045651;28;20029;-82
2024/04/01 05:56:06;;;;;;;0.20;0.20;;;;;;;;;;5042916;28;20030;-80
2024/04/01 05:58:35;;;;;;;0.20;0.20;;;;;;;;;;5022718;28;20005;-83
2024/04/01 06:01:01;;;;;;;0.57;0.20;;;;;;;;;;5057602;28;20017;-83
2024/04/01 06:03:27;;;;;;;0.10;0.10;;;;;;;;;;5048223;28;20049;-80
2024/04/01 06:05:53;;;;;;;0.10;0.10;;;;;;;;;;5031111;28;20037;-80
2024/04/01 06:08:19;;;;;;;0.13;0.10;;;;;;;;;;5006741;28;20030;-81
2024/04/01 06:10:45;;;;;;;0.13;0.10;;;;;;;;;;5008902;28;20048;-81
2024/04/01 06:13:13;;;;;;;0.10;0.10;;;;;;;;;;5024191;28;20026;-80
2024/04/01 06:15:39;;;;;;;0.17;0.10;;;;;;;;;;5011236;28;20021;-80
2024/04/01 06:18:05;;;;;;;0.68;0.30;;;;;;;;;;5023043;28;20119;-81
2024/04/01 06:20:32;;;;;;;0.20;0.20;;;;;;;;;;5033852;28;20080;-80
2024/04/01 06:22:58;;;;;;;0.10;0.10;;;;;;;;;;5013544;28;20193;-80
2024/04/01 06:25:24;;;;;;;0.10;0.10;;;;;;;;;;4998395;28;20029;-80
2024/04/01 06:27:50;;;;;;;0.25;0.20;;;;;;;;;;5016629;28;20041;-80
2024/04/01 06:30:16;;;;;;;0.22;0.08;;;;;;;;;;5036496;28;20033;-81
2024/04/01 06:32:42;;;;;;;0.10;0.10;;;;;;;;;;5038109;28;20348;-80
2024/04/01 06:35:08;;;;;;;0.47;0.32;;;;;;;;;;5022187;28;20041;-80
2024/04/01 06:37:34;;;;;;;0.10;0.00;;;;;;;;;;5019288;28;20029;-80
2024/04/01 06:40:01;;;;;;;0.20;0.00;;;;;;;;;;5022559;28;20026;-81
2024/04/01 06:42:27;;;;;;;0.30;0.10;;;;;;;;;;5042373;28;20029;-80
2024/04/01 06:44:54;;;;;;;0.10;0.10;;;;;;;;;;5034854;28;20017;-81
2024/04/01 06:47:21;;;;;;;0.20;0.20;;;;;;;;;;5038507;28;20017;-80
2024/04/01 06:49:47;;;;;;;0.70;0.20;;;;;;;;;;5032840;28;20034;-82
2024/04/01 06:52:13;;;;;;;0.10;0.10;;;;;;;;;;5033697;28;20033;-82
2024/04/01 06:54:40;;;;;;;0.10;0.10;;;;;;;;;;5023602;28;20036;-82
2024/04/01 06:57:08;;;;;;;0.10;0.10;;;;;;;;;;5029654;28;20048;-81
2024/04/01 06:59:34;;;;;;;0.13;0.13;;;;;;;;;;5025385;28;20054;-80
2024/04/01 07:02:00;;;;;;;0.30;0.10;;;;;;;;;;5024966;28;20022;-81
2024/04/01 07:04:27;;;;;;;0.20;0.20;;;;;;;;;;5028794;28;20083;-81
2024/04/01 07:06:53;;;;;;;0.10;0.10;;;;;;;;;;5019508;28;20429;-81
2024/04/01 07:09:21;;;;;;;0.13;0.10;;;;;;;;;;5032305;28;20048;-82
2024/04/01 07:11:47;;;;;;;0.38;0.10;;;;;;;;;;5022530;28;20029;-81
2024/04/01 07:14:13;;;;;;;0.52;0.52;;;;;;;;;;5036015;28;20025;-81
2024/04/01 07:16:40;;;;;;;0.30;0.30;;;;;;;;;;5035939;28;20026;-79
2024/04/01 07:19:06;;;;;;;0.10;0.10;;;;;;;;;;5028404;28;20129;-82
2024/04/01 07:21:32;;;;;;;0.10;0.10;;;;;;;;;;5019910;28;20557;-81
2024/04/01 07:23:58;;;;;;;0.10;0.10;;;;;;;;;;5030615;28;20545;-80
2024/04/01 07:26:24;;;;;;;0.20;0.20;;;;;;;;;;5016071;28;20061;-80
2024/04/01 07:28:51;;;;;;;0.10;0.10;;;;;;;;;;5037350;28;20025;-80
2024/04/01 07:31:17;;;;;;;0.15;0.10;;;;;;;;;;5036467;28;20025;-80
2024/04/01 07:33:43;;;;;;;0.20;0.10;;;;;;;;;;5027806;28;20032;-80
2024/04/01 07:36:09;;;;;;;1.33;0.30;;;;;;;;;;5036073;28;20049;-80
2024/04/01 07:38:35;;;;;;;12.40;1.00;;;;;;;;;;5037890;28;20025;-81
2024/04/01 07:41:01;;;;;;;10.65;1.00;;;;;;;;;;5030253;28;20017;-80
2024/04/01 07:43:27;;;;;;;2.42;0.68;;;;;;;;;;5019613;28;20036;-80
2024/04/01 07:45:54;;;;;;;3.30;1.33;;;;;;;;;;5029974;28;20160;-79
2024/04/01 07:48:20;;;;;;;0.50;0.50;;;;;;;;;;5017742;28;20289;-79
2024/04/01 07:50:46;;;;;;;5.03;0.50;;;;;;;;;;5007517;28;20050;-80
2024/04/01 07:53:12;;;;;;;1.73;0.40;;;;;;;;;;5024561;28;20068;-81
2024/04/01 07:55:38;;;;;;;1.80;0.47;;;;;;;;;;5034909;28;20060;-79
2024/04/01 07:58:05;;;;;;;0.82;0.25;;;;;;;;;;5028142;28;20033;-80
2024/04/01 08:00:31;;;;;;;2.72;0.47;;;;;;;;;;5025775;28;20099;-80
2024/04/01 08:02:57;;;;;;;0.30;0.30;;;;;;;;;;5021569;28;20032;-81
2024/04/01 08:05:23;;;;;;;0.63;0.40;;;;;;;;;;5020464;28;20041;-81
2024/04/01 08:07:50;;;;;;;1.30;0.30;;;;;;;;;;5033264;28;20045;-79
2024/04/01 08:10:16;;;;;;;0.90;0.15;;;;;;;;;;5032064;28;20026;-80
2024/04/01 08:12:42;;;;;;;2.28;0.28;;;;;;;;;;5025094;28;20116;-79
2024/04/01 08:15:09;;;;;;;2.20;0.30;;;;;;;;;;5016919;28;20124;-79
2024/04/01 08:17:35;;;;;;;1.58;0.63;;;;;;;;;;5046336;28;20076;-81
2024/04/01 08:20:01;;;;;;;0.10;0.10;;;;;;;;;;5039457;28;20610;-80
2024/04/01 08:22:27;;;;;;;0.10;0.10;;;;;;;;;;5038324;28;20089;-80
2024/04/01 08:24:53;;;;;;;1.75;0.20;;;;;;;;;;5026729;28;20361;-79
2024/04/01 08:27:20;;;;;;;1.05;0.20;;;;;;;;;;5044925;28;20025;-81
2024/04/01 08:29:46;;;;;;;2.33;0.20;;;;;;;;;;5048011;28;20013;-79
2024/04/01 08:32:12;;;;;;;2.35;0.10;;;;;;;;;;5028001;28;20054;-81
2024/04/01 08:34:38;;;;;;;0.20;0.20;;;;;;;;;;5040769;28;20030;-79
2024/04/01 08:37:04;;;;;;;0.93;0.10;;;;;;;;;;5011694;28;20053;-79
2024/04/01 08:39:31;;;;;;;0.00;0.00;;;;;;;;;;5033594;28;20372;-83
2024/04/01 08:41:58;;;;;;;0.28;0.20;;;;;;;;;;5052711;28;20068;-84
2024/04/01 08:44:26;;;;;;;0.13;0.13;;;;;;;;;;5058034;28;20040;-84
2024/04/01 08:46:53;;;;;;;1.40;0.20;;;;;;;;;;5053407;28;20026;-82
2024/04/01 08:49:38;;;;;;;0.28;0.20;;;;;;;;;;5055842;28;20020;-84
2024/04/01 08:52:05;;;;;;;1.45;0.43;;;;;;;;;;5055234;28;20049;-83
2024/04/01 08:54:31;;;;;;;0.47;0.30;;;;;;;;;;5033219;28;20033;-79
2024/04/01 08:56:58;;;;;;;0.32;0.10;;;;;;;;;;5040969;28;20044;-79
2024/04/01 08:59:25;;;;;;;1.15;0.10;;;;;;;;;;5044994;28;20057;-81
2024/04/01 09:01:51;;;;;;;0.22;0.10;;;;;;;;;;5007646;28;20037;-80
2024/04/01 09:04:17;;;;;;;0.10;0.10;;;;;;;;;;5051790;28;20032;-81
2024/04/01 09:06:43;;;;;;;0.10;0.10;;;;;;;;;;5034781;28;20018;-80
2024/04/01 09:09:11;;;;;;;0.47;0.20;;;;;;;;;;5049427;28;20101;-81
2024/04/01 09:11:38;;;;;;;1.05;0.22;;;;;;;;;;5045757;28;20017;-81
2024/04/01 09:14:06;;;;;;;0.43;0.00;;;;;;;;;;5040832;28;20024;-81
2024/04/01 09:16:32;;;;;;;0.88;0.20;;;;;;;;;;5043221;28;20072;-84
2024/04/01 09:19:06;;;;;;;0.80;0.80;;;;;;;;;;5047664;28;20117;-79
2024/04/01 09:21:34;;;;;;;0.73;0.30;;;;;;;;;;5030856;28;20472;-81
2024/04/01 09:24:00;;;;;;;0.63;0.22;;;;;;;;;;5039604;28;20072;-80
2024/04/01 09:26:30;;;;;;;0.43;0.20;;;;;;;;;;5031802;28;20025;-81
2024/04/01 09:28:56;;;;;;;0.20;0.10;;;;;;;;;;5038034;28;20555;-81
2024/04/01 09:31:23;;;;;;;0.95;0.30;;;;;;;;;;5020342;28;20025;-81
2024/04/01 09:33:52;;;;;;;0.17;0.13;;;;;;;;;;5017446;28;20033;-80
2024/04/01 09:36:18;;;;;;;0.60;0.30;;;;;;;;;;5038416;28;20084;-81
2024/04/01 09:38:48;;;;;;;0.30;0.20;;;;;;;;;;5041752;28;20112;-80
2024/04/01 09:41:15;;;;;;;1.05;0.95;;;;;;;;;;5056636;28;20020;-81
2024/04/01 09:43:41;;;;;;;0.65;0.30;;;;;;;;;;5038956;28;20036;-79
2024/04/01 09:46:07;;;;;;;0.43;0.28;;;;;;;;;;5057003;28;20085;-82
2024/04/01 09:48:33;;;;;;;0.10;0.10;;;;;;;;;;5057789;28;20067;-81
2024/04/01 09:51:00;;;;;;;0.20;0.20;;;;;;;;;;5040783;28;20097;-82
2024/04/01 09:53:27;;;;;;;0.22;0.22;;;;;;;;;;5049394;28;20057;-80
2024/04/01 09:55:56;;;;;;;0.28;0.10;;;;;;;;;;5031774;28;20022;-79
2024/04/01 09:58:34;;;;;;;0.95;0.30;;;;;;;;;;5037052;28;20085;-81
2024/04/01 10:01:19;;;;;;;0.55;0.10;;;;;;;;;;5022977;28;20062;-80
2024/04/01 10:04:04;;;;;;;0.10;0.10;;;;;;;;;;5018044;28;20030;-78
2024/04/01 10:06:48;;;;;;;0.35;0.10;;;;;;;;;;5034780;28;20065;-79
2024/04/01 10:09:33;;;;;;;0.10;0.10;;;;;;;;;;5027127;28;20097;-79
2024/04/01 10:12:22;;;;;;;0.10;0.10;;;;;;;;;;5018403;28;20030;-79
2024/04/01 10:15:07;;;;;;;0.30;0.20;;;;;;;;;;5024016;28;20029;-79
2024/04/01 10:17:39;;;;;;;0.28;0.20;;;;;;;;;;5036288;28;20017;-79
2024/04/01 10:20:11;;;;;;;1.10;0.80;;;;;;;;;;5029445;28;20017;-80
2024/04/01 10:23:12;;;;;;;0.20;0.20;;;;;;;;;;5029746;28;20037;-81
2024/04/01 10:25:38;;;;;;;0.30;0.10;;;;;;;;;;5030186;28;20058;-80
2024/04/01 10:28:40;;;;;;;0.50;0.22;;;;;;;;;;5028192;28;20013;-80
2024/04/01 10:31:25;;;;;;;0.20;0.20;;;;;;;;;;4952177;29;20027;-80
2024/04/01 10:34:20;;;;;;;0.20;0.10;;;;;;;;;;5013345;28;20519;-80
2024/04/01 10:36:52;;;;;;;0.17;0.10;;;;;;;;;;4948215;28;20074;-80
2024/04/01 10:39:37;;;;;;;0.10;0.10;;;;;;;;;;5026706;28;20498;-80
2024/04/01 10:42:23;;;;;;;0.10;0.10;;;;;;;;;;5028715;28;20037;-80
2024/04/01 10:44:49;;;;;;;0.22;0.10;;;;;;;;;;4970777;28;20106;-80
2024/04/01 10:47:21;;;;;;;0.30;0.10;;;;;;;;;;5034794;28;20101;-78
2024/04/01 10:49:54;;;;;;;0.20;0.10;;;;;;;;;;5022120;28;20017;-81
2024/04/01 10:52:21;;;;;;;;;;;;;;;;;;5038188;28;20174;-80
2024/04/01 10:55:02;;;;;;;0.10;0.10;;;;;;;;;;5036783;28;19916;-79
2024/04/01 10:57:47;;;;;;;0.13;0.13;;;;;;;;;;5036034;28;20074;-80
2024/04/01 11:00:16;;;;;;;0.47;0.17;;;;;;;;;;5027653;28;20119;-80
2024/04/01 11:03:01;;;;;;;0.13;0.13;;;;;;;;;;5013953;28;20026;-80
2024/04/01 11:05:41;;;;;;;0.10;0.10;;;;;;;;;;5027677;28;20037;-80
2024/04/01 11:08:25;;;;;;;0.10;0.10;;;;;;;;;;5037002;28;20139;-80
2024/04/01 11:11:01;;;;;;;0.10;0.10;;;;;;;;;;5028840;28;20026;-78
2024/04/01 11:13:30;;;;;;;0.10;0.10;;;;;;;;;;5029372;28;20025;-81
2024/04/01 11:15:57;;;;;;;0.10;0.10;;;;;;;;;;5019774;28;20029;-80
2024/04/01 11:18:23;;;;;;;0.10;0.10;;;;;;;;;;5026443;28;20026;-80
2024/04/01 11:20:55;;;;;;;0.22;0.20;;;;;;;;;;5016576;28;20060;-79
2024/04/01 11:23:43;;;;;;;0.10;0.10;;;;;;;;;;5049554;28;20037;-80
2024/04/01 11:26:09;;;;;;;0.20;0.20;;;;;;;;;;5047231;28;20034;-80
2024/04/01 11:28:53;;;;;;;0.17;0.17;;;;;;;;;;5029290;28;20075;-82
2024/04/01 11:31:20;;;;;;;0.93;0.30;;;;;;;;;;5052954;28;20026;-83
2024/04/01 11:34:01;;;;;;;0.43;0.10;;;;;;;;;;5056893;28;20022;-84
2024/04/01 11:36:59;;;;;;;0.20;0.10;;;;;;;;;;5039461;28;20017;-83
2024/04/01 11:39:26;;;;;;;0.10;0.10;;;;;;;;;;4996515;28;20026;-84
2024/04/01 11:41:54;;;;;;;0.43;0.10;;;;;;;;;;5054122;28;20010;-83
2024/04/01 11:44:23;;;;;;;0.20;0.20;;;;;;;;;;5036138;28;20048;-81
2024/04/01 11:46:50;;;;;;;0.22;0.20;;;;;;;;;;5048402;28;20037;-80
2024/04/01 11:49:16;;;;;;;0.20;0.20;;;;;;;;;;5048204;28;20011;-80
2024/04/01 11:51:42;;;;;;;0.22;0.22;;;;;;;;;;5033961;28;20038;-81
2024/04/01 11:54:09;;;;;;;0.10;0.10;;;;;;;;;;5051550;28;20109;-82
2024/04/01 11:56:39;;;;;;;0.17;0.17;;;;;;;;;;5050721;28;20006;-81
2024/04/01 11:59:08;;;;;;;0.43;0.20;;;;;;;;;;5053205;28;20026;-81
2024/04/01 12:01:35;;;;;;;0.13;0.10;;;;;;;;;;5053179;28;20104;-80
2024/04/01 12:04:02;;;;;;;0.43;0.10;;;;;;;;;;5041553;28;20034;-79
2024/04/01 12:06:32;;;;;;;1.13;0.45;;;;;;;;;;5051780;28;20036;-78
2024/04/01 12:09:03;;;;;;;0.57;0.10;;;;;;;;;;5013040;28;20157;-82
2024/04/01 12:11:32;;;;;;;0.05;0.05;;;;;;;;;;5024148;28;20010;-83
2024/04/01 12:13:58;;;;;;;2.08;0.10;;;;;;;;;;5027512;28;20041;-79
2024/04/01 12:16:24;;;;;;;0.20;0.10;;;;;;;;;;5021778;28;20489;-79
2024/04/01 12:18:51;;;;;;;0.68;0.10;;;;;;;;;;5051558;28;20033;-76
2024/04/01 12:21:18;;;;;;;0.40;0.20;;;;;;;;;;5039137;28;20022;-77
2024/04/01 12:23:45;;;;;;;0.20;0.20;;;;;;;;;;5039673;28;20033;-78
2024/04/01 12:26:12;;;;;;;0.32;0.30;;;;;;;;;;5036357;28;20126;-78
2024/04/01 12:28:39;;;;;;;0.88;0.30;;;;;;;;;;5024185;28;20025;-79
2024/04/01 12:31:05;;;;;;;0.30;0.20;;;;;;;;;;5025334;28;20020;-76
2024/04/01 12:33:32;;;;;;;0.10;0.08;;;;;;;;;;5045213;28;20032;-79
2024/04/01 12:35:59;;;;;;;0.13;0.13;;;;;;;;;;5041890;28;20214;-79
2024/04/01 12:38:31;;;;;;;0.15;0.10;;;;;;;;;;5045295;28;20029;-79
2024/04/01 12:40:57;;;;;;;0.17;0.17;;;;;;;;;;5043228;28;20381;-79
2024/04/01 12:43:26;;;;;;;0.10;0.10;;;;;;;;;;5041702;28;20030;-78
2024/04/01 12:45:52;;;;;;;0.32;0.22;;;;;;;;;;5042047;28;20044;-78
2024/04/01 12:48:20;;;;;;;0.10;0.10;;;;;;;;;;5037032;28;20499;-78
2024/04/01 12:50:50;;;;;;;0.55;0.00;;;;;;;;;;5040169;28;20073;-80
2024/04/01 12:53:34;;;;;;;0.20;0.20;;;;;;;;;;5039019;28;20021;-82
2024/04/01 12:56:26;;;;;;;0.20;0.20;;;;;;;;;;5018611;28;20029;-79
2024/04/01 12:58:52;;;;;;;0.10;0.10;;;;;;;;;;5032383;28;20026;-79
2024/04/01 13:01:27;;;;;;;0.17;0.17;;;;;;;;;;5037883;28;20041;-79
2024/04/01 13:03:57;;;;;;;0.13;0.10;;;;;;;;;;5014251;28;20041;-77
2024/04/01 13:06:23;;;;;;;0.10;0.10;;;;;;;;;;5036084;28;20504;-77
2024/04/01 13:09:09;;;;;;;0.10;0.08;;;;;;;;;;5018954;28;20060;-77
2024/04/01 13:11:35;;;;;;;0.10;0.10;;;;;;;;;;5035394;28;20025;-78
2024/04/01 13:14:31;;;;;;;0.10;0.10;;;;;;;;;;5036473;28;20026;-78
2024/04/01 13:17:06;;;;;;;0.08;0.08;;;;;;;;;;5003098;28;20125;-78
2024/04/01 13:19:46;;;;;;;0.45;0.15;;;;;;;;;;5036181;28;20059;-77
2024/04/01 13:22:24;;;;;;;0.28;0.10;;;;;;;;;;5030991;28;20576;-78
2024/04/01 13:25:02;;;;;;;0.10;0.10;;;;;;;;;;5029617;28;20022;-78
2024/04/01 13:27:34;;;;;;;0.25;0.20;;;;;;;;;;5037486;28;20020;-77
2024/04/01 13:30:05;;;;;;;0.20;0.20;;;;;;;;;;5018995;28;20023;-77
2024/04/01 13:32:50;;;;;;;0.10;0.10;;;;;;;;;;5018722;28;20033;-77
2024/04/01 13:35:35;;;;;;;0.03;0.03;;;;;;;;;;5035507;28;20025;-77
2024/04/01 13:38:11;;;;;;;0.20;0.20;;;;;;;;;;5033446;28;20029;-77
2024/04/01 13:40:40;;;;;;;0.55;0.43;;;;;;;;;;5034232;28;20104;-77
2024/04/01 13:43:13;;;;;;;0.20;0.20;;;;;;;;;;5035884;28;20021;-77
2024/04/01 13:45:52;;;;;;;0.20;0.20;;;;;;;;;;5018115;28;20029;-77
2024/04/01 13:48:33;;;;;;;0.20;0.20;;;;;;;;;;5026972;28;20154;-77
2024/04/01 13:51:14;;;;;;;0.05;0.05;;;;;;;;;;5036044;28;20025;-76
2024/04/01 13:53:41;;;;;;;0.00;0.00;;;;;;;;;;5024877;28;21224;-76
2024/04/01 13:56:25;;;;;;;0.30;0.17;;;;;;;;;;5031903;28;20063;-77
2024/04/01 13:59:14;;;;;;;0.22;0.17;;;;;;;;;;5030973;28;20418;-77
2024/04/01 14:02:00;;;;;;;0.10;0.10;;;;;;;;;;5045881;28;20021;-77
2024/04/01 14:04:29;;;;;;;0.10;0.10;;;;;;;;;;5028433;28;20128;-77
2024/04/01 14:07:11;;;;;;;1.45;0.20;;;;;;;;;;5030645;28;20033;-77
2024/04/01 14:09:49;;;;;;;0.32;0.28;;;;;;;;;;5033499;28;20057;-77
2024/04/01 14:12:18;;;;;;;0.10;0.10;;;;;;;;;;5009791;28;20036;-79
2024/04/01 14:15:11;;;;;;;0.13;0.13;;;;;;;;;;5030033;28;20411;-77
2024/04/01 14:17:37;;;;;;;;;;;;;;;;;;5023541;28;20049;-77
2024/04/01 14:20:04;;;;;;;0.20;0.20;;;;;;;;;;5026401;28;20502;-77
2024/04/01 14:22:30;;;;;;;0.20;0.20;;;;;;;;;;5030540;28;20496;-77
2024/04/01 14:24:57;;;;;;;0.80;0.17;;;;;;;;;;5032816;28;20028;-78
2024/04/01 14:27:24;;;;;;;0.10;0.10;;;;;;;;;;5027449;28;20018;-77
2024/04/01 14:29:51;;;;;;;0.40;0.40;;;;;;;;;;5030496;28;20028;-77
2024/04/01 14:32:18;;;;;;;0.20;0.20;;;;;;;;;;5033596;28;20033;-77
2024/04/01 14:34:45;;;;;;;0.17;0.10;;;;;;;;;;5030611;28;20026;-78
2024/04/01 14:37:11;;;;;;;0.10;0.10;;;;;;;;;;5033982;28;20037;-78
2024/04/01 14:39:42;;;;;;;0.32;0.25;;;;;;;;;;5033661;28;20075;-78
2024/04/01 14:42:09;;;;;;;0.15;0.10;;;;;;;;;;5022459;28;20030;-78
2024/04/01 14:44:38;;;;;;;0.88;0.20;;;;;;;;;;5026715;28;20036;-78
2024/04/01 14:47:05;;;;;;;0.65;0.13;;;;;;;;;;5035808;28;20094;-78
2024/04/01 14:49:31;;;;;;;0.20;0.20;;;;;;;;;;5016363;28;20088;-77
2024/04/01 14:51:58;;;;;;;0.35;0.35;;;;;;;;;;5027960;28;20026;-77
2024/04/01 14:54:24;;;;;;;0.22;0.03;;;;;;;;;;5045252;28;20048;-77